KMLB/MLB METAR and TAF weather

Enter ICAO airport designator
Station Type Date Time Source
KMLB METAR 2021/10/24 20:53 UTC NOAA

KMLB 242053Z 12007KT 10SM FEW021 28/23 A2998 RMK AO2 SLP151 60000 T02780233 55009


Station Type Date Time Source
KMLB Decoded METAR 2021/10/24 20:53 UTC NOAA

MELBOURNE INTERNATIONAL, FL, United States (KMLB) 28-06N 080-39W 10M
Oct 24, 2021 - 04:53 PM EDT / 2021.10.24 2053 UTC
Wind: from the ESE (120 degrees) at 8 MPH (7 KT):0
Visibility: 10 mile(s):0
Sky conditions: mostly clear
Temperature: 82.0 F (27.8 C)
Dew Point: 73.9 F (23.3 C)
Relative Humidity: 76%
Pressure (altimeter): 29.98 in. Hg (1015 hPa)
Pressure tendency: 0.03 inches (0.9 hPa) lower than three hours ago
ob: KMLB 242053Z 12007KT 10SM FEW021 28/23 A2998 RMK AO2 SLP151 60000 T02780233 55009
cycle: 21

Station Type Date Time Source
KMLB TAF 2021/10/24 18:48 UTC NOAA

TAF KMLB 241746Z 2418/2518 09010KT P6SM VCTS SCT025CB SCT100 BKN220
TEMPO 2418/2420 4SM TSRA BKN030CB OVC080
FM250000 12006KT P6SM -SHRA SCT040 BKN120 BKN200
FM250400 16005KT P6SM VCSH SCT040 BKN200
FM251000 23005KT P6SM SCT025 BKN200
FM251400 25010KT P6SM SCT025 BKN035

Example: see airport list